sensor_id;sensor_type;location;lat;lon;timestamp;temperature;humidity
2220;DHT22;1116;51.502;7.414;2024-03-02T00:00:01;9.90;38.70
2220;DHT22;1116;51.502;7.414;2024-03-02T00:02:42;10.00;37.70
2220;DHT22;1116;51.502;7.414;2024-03-02T00:05:13;9.90;38.00
2220;DHT22;1116;51.502;7.414;2024-03-02T00:07:46;10.00;37.50
2220;DHT22;1116;51.502;7.414;2024-03-02T00:10:25;9.90;38.80
2220;DHT22;1116;51.502;7.414;2024-03-02T00:12:56;9.90;38.60
2220;DHT22;1116;51.502;7.414;2024-03-02T00:15:41;9.90;38.90
2220;DHT22;1116;51.502;7.414;2024-03-02T00:18:18;10.00;37.30
2220;DHT22;1116;51.502;7.414;2024-03-02T00:20:49;9.90;38.40
2220;DHT22;1116;51.502;7.414;2024-03-02T00:23:23;9.90;38.90
2220;DHT22;1116;51.502;7.414;2024-03-02T00:25:55;9.90;38.40
2220;DHT22;1116;51.502;7.414;2024-03-02T00:28:29;10.00;37.00
2220;DHT22;1116;51.502;7.414;2024-03-02T00:31:03;9.90;37.60
2220;DHT22;1116;51.502;7.414;2024-03-02T00:33:40;10.00;36.90
2220;DHT22;1116;51.502;7.414;2024-03-02T00:36:12;9.90;38.20
2220;DHT22;1116;51.502;7.414;2024-03-02T00:38:46;10.00;36.90
2220;DHT22;1116;51.502;7.414;2024-03-02T00:41:21;9.90;37.60
2220;DHT22;1116;51.502;7.414;2024-03-02T00:43:58;10.00;36.70
2220;DHT22;1116;51.502;7.414;2024-03-02T00:46:27;9.90;38.20
2220;DHT22;1116;51.502;7.414;2024-03-02T00:49:04;10.00;37.20
2220;DHT22;1116;51.502;7.414;2024-03-02T00:51:35;9.90;38.00
2220;DHT22;1116;51.502;7.414;2024-03-02T00:54:07;9.90;37.70
2220;DHT22;1116;51.502;7.414;2024-03-02T00:56:38;9.90;37.60
2220;DHT22;1116;51.502;7.414;2024-03-02T00:59:09;10.00;36.70
2220;DHT22;1116;51.502;7.414;2024-03-02T01:01:39;10.00;36.70
2220;DHT22;1116;51.502;7.414;2024-03-02T01:04:12;9.90;37.60
2220;DHT22;1116;51.502;7.414;2024-03-02T01:06:43;9.90;38.00
2220;DHT22;1116;51.502;7.414;2024-03-02T01:09:13;10.00;36.70
2220;DHT22;1116;51.502;7.414;2024-03-02T01:11:45;10.00;36.70
2220;DHT22;1116;51.502;7.414;2024-03-02T01:14:15;9.90;37.60
2220;DHT22;1116;51.502;7.414;2024-03-02T01:16:45;10.00;36.80
2220;DHT22;1116;51.502;7.414;2024-03-02T01:19:18;10.00;36.70
2220;DHT22;1116;51.502;7.414;2024-03-02T01:21:49;9.90;37.70
2220;DHT22;1116;51.502;7.414;2024-03-02T01:24:20;9.80;37.50
2220;DHT22;1116;51.502;7.414;2024-03-02T01:26:50;9.90;37.70
2220;DHT22;1116;51.502;7.414;2024-03-02T01:29:20;9.70;37.80
2220;DHT22;1116;51.502;7.414;2024-03-02T01:31:50;9.80;38.00
2220;DHT22;1116;51.502;7.414;2024-03-02T01:34:23;9.80;38.20
2220;DHT22;1116;51.502;7.414;2024-03-02T01:36:53;9.80;37.60
2220;DHT22;1116;51.502;7.414;2024-03-02T01:39:23;9.80;38.20
2220;DHT22;1116;51.502;7.414;2024-03-02T01:41:53;9.80;37.10
2220;DHT22;1116;51.502;7.414;2024-03-02T01:44:23;9.80;37.60
2220;DHT22;1116;51.502;7.414;2024-03-02T01:46:54;9.80;38.40
2220;DHT22;1116;51.502;7.414;2024-03-02T01:49:26;9.70;38.50
2220;DHT22;1116;51.502;7.414;2024-03-02T01:51:57;9.80;37.50
2220;DHT22;1116;51.502;7.414;2024-03-02T01:54:27;9.80;37.50
2220;DHT22;1116;51.502;7.414;2024-03-02T01:56:57;9.70;38.10
2220;DHT22;1116;51.502;7.414;2024-03-02T01:59:27;9.70;37.60
2220;DHT22;1116;51.502;7.414;2024-03-02T02:01:57;9.80;37.60
2220;DHT22;1116;51.502;7.414;2024-03-02T02:04:30;9.80;37.90
2220;DHT22;1116;51.502;7.414;2024-03-02T02:07:00;9.80;37.60
2220;DHT22;1116;51.502;7.414;2024-03-02T02:09:30;9.80;37.50
2220;DHT22;1116;51.502;7.414;2024-03-02T02:12:00;9.80;37.60
2220;DHT22;1116;51.502;7.414;2024-03-02T02:14:33;9.80;37.50
2220;DHT22;1116;51.502;7.414;2024-03-02T02:17:04;9.70;37.50
2220;DHT22;1116;51.502;7.414;2024-03-02T02:19:36;9.70;37.50
2220;DHT22;1116;51.502;7.414;2024-03-02T02:22:09;9.70;37.50
2220;DHT22;1116;51.502;7.414;2024-03-02T02:24:40;9.80;37.50
2220;DHT22;1116;51.502;7.414;2024-03-02T02:27:11;9.70;37.50
2220;DHT22;1116;51.502;7.414;2024-03-02T02:29:42;9.70;37.50
2220;DHT22;1116;51.502;7.414;2024-03-02T02:32:12;9.80;37.50
2220;DHT22;1116;51.502;7.414;2024-03-02T02:34:42;9.70;36.80
2220;DHT22;1116;51.502;7.414;2024-03-02T02:37:14;9.80;36.40
2220;DHT22;1116;51.502;7.414;2024-03-02T02:39:45;9.70;37.20
2220;DHT22;1116;51.502;7.414;2024-03-02T02:42:15;9.80;36.90
2220;DHT22;1116;51.502;7.414;2024-03-02T02:44:45;9.80;36.70
2220;DHT22;1116;51.502;7.414;2024-03-02T02:47:15;9.90;36.50
2220;DHT22;1116;51.502;7.414;2024-03-02T02:49:45;9.90;36.20
2220;DHT22;1116;51.502;7.414;2024-03-02T02:52:18;9.90;36.90
2220;DHT22;1116;51.502;7.414;2024-03-02T02:54:48;9.90;36.30
2220;DHT22;1116;51.502;7.414;2024-03-02T02:57:19;10.00;34.90
2220;DHT22;1116;51.502;7.414;2024-03-02T02:59:49;10.00;35.00
2220;DHT22;1116;51.502;7.414;2024-03-02T03:02:19;10.00;35.40
2220;DHT22;1116;51.502;7.414;2024-03-02T03:04:49;9.90;36.20
2220;DHT22;1116;51.502;7.414;2024-03-02T03:07:22;9.90;35.80
2220;DHT22;1116;51.502;7.414;2024-03-02T03:09:52;9.90;36.20
2220;DHT22;1116;51.502;7.414;2024-03-02T03:12:22;9.90;36.00
2220;DHT22;1116;51.502;7.414;2024-03-02T03:14:52;9.90;35.90
2220;DHT22;1116;51.502;7.414;2024-03-02T03:17:22;9.90;36.20
2220;DHT22;1116;51.502;7.414;2024-03-02T03:19:52;9.90;35.90
2220;DHT22;1116;51.502;7.414;2024-03-02T03:22:25;9.90;35.60
2220;DHT22;1116;51.502;7.414;2024-03-02T03:24:55;9.90;35.60
2220;DHT22;1116;51.502;7.414;2024-03-02T03:27:25;9.90;35.70
2220;DHT22;1116;51.502;7.414;2024-03-02T03:29:56;10.00;34.70
2220;DHT22;1116;51.502;7.414;2024-03-02T03:32:26;9.90;35.60
2220;DHT22;1116;51.502;7.414;2024-03-02T03:34:56;10.00;34.80
2220;DHT22;1116;51.502;7.414;2024-03-02T03:37:28;10.00;34.60
2220;DHT22;1116;51.502;7.414;2024-03-02T03:40:01;10.00;34.50
2220;DHT22;1116;51.502;7.414;2024-03-02T03:42:37;10.00;34.90
2220;DHT22;1116;51.502;7.414;2024-03-02T03:45:08;10.00;34.10
2220;DHT22;1116;51.502;7.414;2024-03-02T03:47:38;10.00;34.00
2220;DHT22;1116;51.502;7.414;2024-03-02T03:50:09;10.00;33.70
2220;DHT22;1116;51.502;7.414;2024-03-02T03:52:42;10.00;33.90
2220;DHT22;1116;51.502;7.414;2024-03-02T03:55:12;10.00;33.80
2220;DHT22;1116;51.502;7.414;2024-03-02T03:57:42;10.80;35.00
2220;DHT22;1116;51.502;7.414;2024-03-02T04:00:14;10.10;33.60
2220;DHT22;1116;51.502;7.414;2024-03-02T04:02:44;10.20;34.40
2220;DHT22;1116;51.502;7.414;2024-03-02T04:05:14;10.20;33.50
2220;DHT22;1116;51.502;7.414;2024-03-02T04:07:47;10.20;32.90
2220;DHT22;1116;51.502;7.414;2024-03-02T04:10:17;11.30;33.70
2220;DHT22;1116;51.502;7.414;2024-03-02T04:12:49;10.40;32.70
2220;DHT22;1116;51.502;7.414;2024-03-02T04:15:20;10.30;33.90
2220;DHT22;1116;51.502;7.414;2024-03-02T04:17:50;10.40;32.70
2220;DHT22;1116;51.502;7.414;2024-03-02T04:20:22;10.30;32.50
2220;DHT22;1116;51.502;7.414;2024-03-02T04:22:55;10.20;32.40
2220;DHT22;1116;51.502;7.414;2024-03-02T04:25:25;10.20;33.30
2220;DHT22;1116;51.502;7.414;2024-03-02T04:27:55;10.30;33.90
2220;DHT22;1116;51.502;7.414;2024-03-02T04:30:25;10.30;33.50
2220;DHT22;1116;51.502;7.414;2024-03-02T04:32:55;10.30;32.70
2220;DHT22;1116;51.502;7.414;2024-03-02T04:35:25;10.30;32.70
2220;DHT22;1116;51.502;7.414;2024-03-02T04:37:58;10.40;33.90
2220;DHT22;1116;51.502;7.414;2024-03-02T04:40:28;10.30;33.20
2220;DHT22;1116;51.502;7.414;2024-03-02T04:42:59;10.30;32.80
2220;DHT22;1116;51.502;7.414;2024-03-02T04:45:30;10.30;32.80
2220;DHT22;1116;51.502;7.414;2024-03-02T04:48:00;10.30;33.60
2220;DHT22;1116;51.502;7.414;2024-03-02T04:50:30;10.20;33.20
2220;DHT22;1116;51.502;7.414;2024-03-02T04:53:03;10.20;33.50
2220;DHT22;1116;51.502;7.414;2024-03-02T04:55:33;10.20;33.40
2220;DHT22;1116;51.502;7.414;2024-03-02T04:58:16;10.20;33.50
2220;DHT22;1116;51.502;7.414;2024-03-02T05:00:46;10.20;33.80
2220;DHT22;1116;51.502;7.414;2024-03-02T05:03:16;10.10;34.00
2220;DHT22;1116;51.502;7.414;2024-03-02T05:05:46;10.10;34.00
2220;DHT22;1116;51.502;7.414;2024-03-02T05:08:19;10.10;35.10
2220;DHT22;1116;51.502;7.414;2024-03-02T05:10:49;10.00;34.70
2220;DHT22;1116;51.502;7.414;2024-03-02T05:13:19;10.00;34.40
2220;DHT22;1116;51.502;7.414;2024-03-02T05:15:48;10.00;34.70
2220;DHT22;1116;51.502;7.414;2024-03-02T05:18:18;10.00;34.80
2220;DHT22;1116;51.502;7.414;2024-03-02T05:20:48;9.90;35.80
2220;DHT22;1116;51.502;7.414;2024-03-02T05:23:20;10.00;35.10
2220;DHT22;1116;51.502;7.414;2024-03-02T05:25:51;9.90;36.20
2220;DHT22;1116;51.502;7.414;2024-03-02T05:28:21;9.90;36.70
2220;DHT22;1116;51.502;7.414;2024-03-02T05:30:51;9.90;36.40
2220;DHT22;1116;51.502;7.414;2024-03-02T05:33:22;9.80;37.30
2220;DHT22;1116;51.502;7.414;2024-03-02T05:35:52;9.90;36.80
2220;DHT22;1116;51.502;7.414;2024-03-02T05:38:25;9.80;36.80
2220;DHT22;1116;51.502;7.414;2024-03-02T05:40:55;9.80;36.80
2220;DHT22;1116;51.502;7.414;2024-03-02T05:43:25;9.80;37.20
2220;DHT22;1116;51.502;7.414;2024-03-02T05:45:55;9.70;37.30
2220;DHT22;1116;51.502;7.414;2024-03-02T05:48:25;9.70;37.50
2220;DHT22;1116;51.502;7.414;2024-03-02T05:50:55;9.60;37.40
2220;DHT22;1116;51.502;7.414;2024-03-02T05:53:28;9.60;37.40
2220;DHT22;1116;51.502;7.414;2024-03-02T05:55:58;9.60;37.40
2220;DHT22;1116;51.502;7.414;2024-03-02T05:58:31;9.60;37.40
2220;DHT22;1116;51.502;7.414;2024-03-02T06:01:13;9.60;37.40
2220;DHT22;1116;51.502;7.414;2024-03-02T06:03:45;9.60;38.10
2220;DHT22;1116;51.502;7.414;2024-03-02T06:06:16;9.60;37.40
2220;DHT22;1116;51.502;7.414;2024-03-02T06:08:48;9.60;37.40
2220;DHT22;1116;51.502;7.414;2024-03-02T06:11:19;9.60;37.40
2220;DHT22;1116;51.502;7.414;2024-03-02T06:13:49;9.50;37.50
2220;DHT22;1116;51.502;7.414;2024-03-02T06:16:19;9.50;37.60
2220;DHT22;1116;51.502;7.414;2024-03-02T06:18:49;9.50;37.70
2220;DHT22;1116;51.502;7.414;2024-03-02T06:21:20;9.50;37.60
2220;DHT22;1116;51.502;7.414;2024-03-02T06:23:53;9.60;37.50
2220;DHT22;1116;51.502;7.414;2024-03-02T06:26:24;9.60;37.40
2220;DHT22;1116;51.502;7.414;2024-03-02T06:28:54;9.60;38.00
2220;DHT22;1116;51.502;7.414;2024-03-02T06:31:24;9.60;37.40
2220;DHT22;1116;51.502;7.414;2024-03-02T06:33:54;9.60;37.40
2220;DHT22;1116;51.502;7.414;2024-03-02T06:36:24;9.60;37.40
2220;DHT22;1116;51.502;7.414;2024-03-02T06:38:56;9.60;37.50
2220;DHT22;1116;51.502;7.414;2024-03-02T06:41:26;9.60;37.70
2220;DHT22;1116;51.502;7.414;2024-03-02T06:43:58;9.60;37.50
2220;DHT22;1116;51.502;7.414;2024-03-02T06:46:28;9.60;37.50
2220;DHT22;1116;51.502;7.414;2024-03-02T06:48:58;9.60;37.50
2220;DHT22;1116;51.502;7.414;2024-03-02T06:51:29;9.60;37.40
2220;DHT22;1116;51.502;7.414;2024-03-02T06:54:02;9.70;37.50
2220;DHT22;1116;51.502;7.414;2024-03-02T06:56:32;9.80;37.60
2220;DHT22;1116;51.502;7.414;2024-03-02T06:59:02;9.90;37.70
2220;DHT22;1116;51.502;7.414;2024-03-02T07:01:32;9.90;37.20
2220;DHT22;1116;51.502;7.414;2024-03-02T07:04:03;10.00;35.70
2220;DHT22;1116;51.502;7.414;2024-03-02T07:06:33;10.10;35.70
2220;DHT22;1116;51.502;7.414;2024-03-02T07:09:06;10.20;35.50
2220;DHT22;1116;51.502;7.414;2024-03-02T07:11:38;10.20;35.40
2220;DHT22;1116;51.502;7.414;2024-03-02T07:14:08;10.10;34.90
2220;DHT22;1116;51.502;7.414;2024-03-02T07:16:38;10.10;35.10
2220;DHT22;1116;51.502;7.414;2024-03-02T07:19:07;10.10;36.10
2220;DHT22;1116;51.502;7.414;2024-03-02T07:21:37;10.20;34.50
2220;DHT22;1116;51.502;7.414;2024-03-02T07:24:11;10.20;35.20
2220;DHT22;1116;51.502;7.414;2024-03-02T07:26:43;10.30;35.60
2220;DHT22;1116;51.502;7.414;2024-03-02T07:29:16;10.30;34.80
2220;DHT22;1116;51.502;7.414;2024-03-02T07:31:46;10.30;34.90
2220;DHT22;1116;51.502;7.414;2024-03-02T07:34:16;10.40;35.10
2220;DHT22;1116;51.502;7.414;2024-03-02T07:36:46;10.50;34.40
2220;DHT22;1116;51.502;7.414;2024-03-02T07:39:19;10.50;34.80
2220;DHT22;1116;51.502;7.414;2024-03-02T07:41:49;10.50;33.90
2220;DHT22;1116;51.502;7.414;2024-03-02T07:44:20;10.60;34.40
2220;DHT22;1116;51.502;7.414;2024-03-02T07:46:50;10.70;34.50
2220;DHT22;1116;51.502;7.414;2024-03-02T07:49:20;11.20;34.60
2220;DHT22;1116;51.502;7.414;2024-03-02T07:51:50;10.90;33.50
2220;DHT22;1116;51.502;7.414;2024-03-02T07:54:23;11.00;33.30
2220;DHT22;1116;51.502;7.414;2024-03-02T07:56:53;11.10;32.20
2220;DHT22;1116;51.502;7.414;2024-03-02T07:59:23;11.20;32.10
2220;DHT22;1116;51.502;7.414;2024-03-02T08:01:53;11.80;32.20
2220;DHT22;1116;51.502;7.414;2024-03-02T08:04:25;13.50;28.10
2220;DHT22;1116;51.502;7.414;2024-03-02T08:06:55;15.20;24.40
2220;DHT22;1116;51.502;7.414;2024-03-02T08:09:27;16.20;22.10
2220;DHT22;1116;51.502;7.414;2024-03-02T08:11:57;16.80;18.70
2220;DHT22;1116;51.502;7.414;2024-03-02T08:14:27;17.10;19.00
2220;DHT22;1116;51.502;7.414;2024-03-02T08:16:57;17.80;17.30
2220;DHT22;1116;51.502;7.414;2024-03-02T08:19:28;18.50;15.90
2220;DHT22;1116;51.502;7.414;2024-03-02T08:21:58;18.70;14.40
2220;DHT22;1116;51.502;7.414;2024-03-02T08:24:31;18.80;14.90
2220;DHT22;1116;51.502;7.414;2024-03-02T08:27:02;18.80;15.00
2220;DHT22;1116;51.502;7.414;2024-03-02T08:29:32;19.20;13.00
2220;DHT22;1116;51.502;7.414;2024-03-02T08:32:02;19.10;13.20
2220;DHT22;1116;51.502;7.414;2024-03-02T08:34:33;19.90;13.70
2220;DHT22;1116;51.502;7.414;2024-03-02T08:37:03;20.50;10.90
2220;DHT22;1116;51.502;7.414;2024-03-02T08:39:36;20.00;10.40
2220;DHT22;1116;51.502;7.414;2024-03-02T08:42:07;19.80;11.20
2220;DHT22;1116;51.502;7.414;2024-03-02T08:44:37;20.40;11.50
2220;DHT22;1116;51.502;7.414;2024-03-02T08:47:07;21.30;9.70
2220;DHT22;1116;51.502;7.414;2024-03-02T08:49:37;21.90;9.00
2220;DHT22;1116;51.502;7.414;2024-03-02T08:52:07;21.20;8.00
2220;DHT22;1116;51.502;7.414;2024-03-02T08:54:40;21.20;9.60
2220;DHT22;1116;51.502;7.414;2024-03-02T08:57:10;21.80;8.20
2220;DHT22;1116;51.502;7.414;2024-03-02T08:59:40;21.70;7.90
2220;DHT22;1116;51.502;7.414;2024-03-02T09:02:11;20.90;8.40
2220;DHT22;1116;51.502;7.414;2024-03-02T09:04:41;21.40;9.30
2220;DHT22;1116;51.502;7.414;2024-03-02T09:07:12;21.60;8.00
2220;DHT22;1116;51.502;7.414;2024-03-02T09:09:44;21.50;7.90
2220;DHT22;1116;51.502;7.414;2024-03-02T09:12:15;21.50;7.30
2220;DHT22;1116;51.502;7.414;2024-03-02T09:14:45;21.30;8.10
2220;DHT22;1116;51.502;7.414;2024-03-02T09:17:16;22.20;7.10
2220;DHT22;1116;51.502;7.414;2024-03-02T09:19:46;21.90;6.30
2220;DHT22;1116;51.502;7.414;2024-03-02T09:22:19;21.60;6.60
2220;DHT22;1116;51.502;7.414;2024-03-02T09:24:52;21.30;8.10
2220;DHT22;1116;51.502;7.414;2024-03-02T09:27:22;21.70;8.30
2220;DHT22;1116;51.502;7.414;2024-03-02T09:29:52;22.50;8.30
2220;DHT22;1116;51.502;7.414;2024-03-02T09:32:22;22.70;5.30
2220;DHT22;1116;51.502;7.414;2024-03-02T09:34:53;21.90;6.00
2220;DHT22;1116;51.502;7.414;2024-03-02T09:37:23;21.40;6.70
2220;DHT22;1116;51.502;7.414;2024-03-02T09:39:56;21.30;7.30
2220;DHT22;1116;51.502;7.414;2024-03-02T09:42:26;21.50;6.70
2220;DHT22;1116;51.502;7.414;2024-03-02T09:44:57;22.30;6.90
2220;DHT22;1116;51.502;7.414;2024-03-02T09:47:27;22.90;7.30
2220;DHT22;1116;51.502;7.414;2024-03-02T09:49:57;23.10;4.60
2220;DHT22;1116;51.502;7.414;2024-03-02T09:52:27;24.20;4.80
2220;DHT22;1116;51.502;7.414;2024-03-02T09:55:00;25.20;4.90
2220;DHT22;1116;51.502;7.414;2024-03-02T09:57:32;25.40;4.90
2220;DHT22;1116;51.502;7.414;2024-03-02T10:00:06;25.40;1.40
2220;DHT22;1116;51.502;7.414;2024-03-02T10:02:42;25.80;2.10
2220;DHT22;1116;51.502;7.414;2024-03-02T10:05:12;25.80;1.00
2220;DHT22;1116;51.502;7.414;2024-03-02T10:07:59;25.00;1.00
2220;DHT22;1116;51.502;7.414;2024-03-02T10:10:38;24.50;2.60
2220;DHT22;1116;51.502;7.414;2024-03-02T10:13:11;24.80;2.70
2220;DHT22;1116;51.502;7.414;2024-03-02T10:15:43;25.70;1.80
2220;DHT22;1116;51.502;7.414;2024-03-02T10:18:13;25.50;1.00
2220;DHT22;1116;51.502;7.414;2024-03-02T10:20:43;24.40;2.30
2220;DHT22;1116;51.502;7.414;2024-03-02T10:23:16;24.50;2.80
2220;DHT22;1116;51.502;7.414;2024-03-02T10:25:50;23.70;4.40
2220;DHT22;1116;51.502;7.414;2024-03-02T10:28:24;24.60;3.30
2220;DHT22;1116;51.502;7.414;2024-03-02T10:30:55;24.00;3.90
2220;DHT22;1116;51.502;7.414;2024-03-02T10:33:25;24.30;2.80
2220;DHT22;1116;51.502;7.414;2024-03-02T10:35:56;23.60;2.10
2220;DHT22;1116;51.502;7.414;2024-03-02T10:38:26;23.50;3.80
2220;DHT22;1116;51.502;7.414;2024-03-02T10:40:59;23.20;2.80
2220;DHT22;1116;51.502;7.414;2024-03-02T10:43:30;23.70;4.40
2220;DHT22;1116;51.502;7.414;2024-03-02T10:46:00;23.70;2.80
2220;DHT22;1116;51.502;7.414;2024-03-02T10:48:31;23.30;3.10
2220;DHT22;1116;51.502;7.414;2024-03-02T10:51:03;23.60;3.60
2220;DHT22;1116;51.502;7.414;2024-03-02T10:53:33;23.80;4.50
2220;DHT22;1116;51.502;7.414;2024-03-02T10:56:07;24.30;2.60
2220;DHT22;1116;51.502;7.414;2024-03-02T10:58:39;23.60;4.30
2220;DHT22;1116;51.502;7.414;2024-03-02T11:01:11;23.30;4.00
2220;DHT22;1116;51.502;7.414;2024-03-02T11:03:44;22.90;3.00
2220;DHT22;1116;51.502;7.414;2024-03-02T11:06:15;23.10;3.40
2220;DHT22;1116;51.502;7.414;2024-03-02T11:08:47;23.20;4.00
2220;DHT22;1116;51.502;7.414;2024-03-02T11:11:29;22.60;3.50
2220;DHT22;1116;51.502;7.414;2024-03-02T11:14:02;22.50;4.80
2220;DHT22;1116;51.502;7.414;2024-03-02T11:16:36;21.60;4.20
2220;DHT22;1116;51.502;7.414;2024-03-02T11:19:11;20.70;6.40
2220;DHT22;1116;51.502;7.414;2024-03-02T11:21:44;20.80;7.70
2220;DHT22;1116;51.502;7.414;2024-03-02T11:24:32;20.50;7.80
2220;DHT22;1116;51.502;7.414;2024-03-02T11:27:10;20.70;8.30
2220;DHT22;1116;51.502;7.414;2024-03-02T11:29:45;20.80;7.70
2220;DHT22;1116;51.502;7.414;2024-03-02T11:32:21;19.00;7.10
2220;DHT22;1116;51.502;7.414;2024-03-02T11:34:52;20.80;7.70
2220;DHT22;1116;51.502;7.414;2024-03-02T11:37:22;21.00;8.60
2220;DHT22;1116;51.502;7.414;2024-03-02T11:39:54;20.90;7.30
2220;DHT22;1116;51.502;7.414;2024-03-02T11:42:27;21.20;8.00
2220;DHT22;1116;51.502;7.414;2024-03-02T11:44:57;21.50;7.60
2220;DHT22;1116;51.502;7.414;2024-03-02T11:47:31;21.70;6.60
2220;DHT22;1116;51.502;7.414;2024-03-02T11:50:06;21.70;6.90
2220;DHT22;1116;51.502;7.414;2024-03-02T11:52:37;22.10;6.50
2220;DHT22;1116;51.502;7.414;2024-03-02T11:55:08;21.40;7.20
2220;DHT22;1116;51.502;7.414;2024-03-02T11:57:42;21.30;8.10
2220;DHT22;1116;51.502;7.414;2024-03-02T12:00:17;21.40;8.70
2220;DHT22;1116;51.502;7.414;2024-03-02T12:02:47;21.40;8.20
2220;DHT22;1116;51.502;7.414;2024-03-02T12:05:18;21.60;6.40
2220;DHT22;1116;51.502;7.414;2024-03-02T12:07:55;21.70;7.80
2220;DHT22;1116;51.502;7.414;2024-03-02T12:10:27;21.90;7.80
2220;DHT22;1116;51.502;7.414;2024-03-02T12:13:02;21.80;6.50
2220;DHT22;1116;51.502;7.414;2024-03-02T12:15:34;21.70;6.90
2220;DHT22;1116;51.502;7.414;2024-03-02T12:18:06;20.90;9.00
2220;DHT22;1116;51.502;7.414;2024-03-02T12:20:37;20.20;8.70
2220;DHT22;1116;51.502;7.414;2024-03-02T12:23:07;19.70;11.80
2220;DHT22;1116;51.502;7.414;2024-03-02T12:25:39;19.80;12.30
2220;DHT22;1116;51.502;7.414;2024-03-02T12:28:12;20.30;10.20
2220;DHT22;1116;51.502;7.414;2024-03-02T12:30:42;20.20;9.10
2220;DHT22;1116;51.502;7.414;2024-03-02T12:33:12;20.70;8.70
2220;DHT22;1116;51.502;7.414;2024-03-02T12:35:42;20.40;9.20
2220;DHT22;1116;51.502;7.414;2024-03-02T12:38:14;20.30;8.60
2220;DHT22;1116;51.502;7.414;2024-03-02T12:40:44;20.70;8.90
2220;DHT22;1116;51.502;7.414;2024-03-02T12:43:17;20.30;10.20
2220;DHT22;1116;51.502;7.414;2024-03-02T12:45:47;20.50;9.70
2220;DHT22;1116;51.502;7.414;2024-03-02T12:48:17;20.70;9.30
2220;DHT22;1116;51.502;7.414;2024-03-02T12:50:47;20.80;9.00
2220;DHT22;1116;51.502;7.414;2024-03-02T12:53:17;21.50;8.80
2220;DHT22;1116;51.502;7.414;2024-03-02T12:55:48;21.50;7.50
2220;DHT22;1116;51.502;7.414;2024-03-02T12:58:22;21.40;7.70
2220;DHT22;1116;51.502;7.414;2024-03-02T13:01:05;20.70;7.60
2220;DHT22;1116;51.502;7.414;2024-03-02T13:03:38;20.20;8.90
2220;DHT22;1116;51.502;7.414;2024-03-02T13:06:08;19.80;10.10
2220;DHT22;1116;51.502;7.414;2024-03-02T13:08:38;20.00;10.40
2220;DHT22;1116;51.502;7.414;2024-03-02T13:11:09;19.30;9.90
2220;DHT22;1116;51.502;7.414;2024-03-02T13:13:42;19.00;11.70
2220;DHT22;1116;51.502;7.414;2024-03-02T13:16:12;18.70;11.80
2220;DHT22;1116;51.502;7.414;2024-03-02T13:18:44;18.50;12.70
2220;DHT22;1116;51.502;7.414;2024-03-02T13:21:15;18.40;13.20
2220;DHT22;1116;51.502;7.414;2024-03-02T13:23:45;18.20;13.40
2220;DHT22;1116;51.502;7.414;2024-03-02T13:26:15;18.10;13.40
2220;DHT22;1116;51.502;7.414;2024-03-02T13:28:48;18.10;13.10
2220;DHT22;1116;51.502;7.414;2024-03-02T13:31:18;17.70;15.70
2220;DHT22;1116;51.502;7.414;2024-03-02T13:33:48;17.90;15.60
2220;DHT22;1116;51.502;7.414;2024-03-02T13:36:18;18.00;15.10
2220;DHT22;1116;51.502;7.414;2024-03-02T13:38:48;17.80;15.90
2220;DHT22;1116;51.502;7.414;2024-03-02T13:41:18;17.70;14.40
2220;DHT22;1116;51.502;7.414;2024-03-02T13:43:51;17.40;14.80
2220;DHT22;1116;51.502;7.414;2024-03-02T13:46:21;17.20;15.60
2220;DHT22;1116;51.502;7.414;2024-03-02T13:48:51;17.00;15.30
2220;DHT22;1116;51.502;7.414;2024-03-02T13:51:21;17.10;15.50
2220;DHT22;1116;51.502;7.414;2024-03-02T13:53:52;17.00;15.50
2220;DHT22;1116;51.502;7.414;2024-03-02T13:56:22;17.00;15.50
2220;DHT22;1116;51.502;7.414;2024-03-02T13:58:54;17.20;15.70
2220;DHT22;1116;51.502;7.414;2024-03-02T14:01:25;17.10;15.50
2220;DHT22;1116;51.502;7.414;2024-03-02T14:03:55;16.80;16.40
2220;DHT22;1116;51.502;7.414;2024-03-02T14:06:25;16.70;16.20
2220;DHT22;1116;51.502;7.414;2024-03-02T14:08:55;16.90;16.30
2220;DHT22;1116;51.502;7.414;2024-03-02T14:11:25;16.80;15.50
2220;DHT22;1116;51.502;7.414;2024-03-02T14:13:58;16.80;15.40
2220;DHT22;1116;51.502;7.414;2024-03-02T14:16:28;16.90;15.40
2220;DHT22;1116;51.502;7.414;2024-03-02T14:18:58;16.90;15.40
2220;DHT22;1116;51.502;7.414;2024-03-02T14:21:29;17.00;16.00
2220;DHT22;1116;51.502;7.414;2024-03-02T14:23:59;16.80;16.30
2220;DHT22;1116;51.502;7.414;2024-03-02T14:26:29;16.90;17.70
2220;DHT22;1116;51.502;7.414;2024-03-02T14:29:02;16.70;15.70
2220;DHT22;1116;51.502;7.414;2024-03-02T14:31:33;16.60;16.80
2220;DHT22;1116;51.502;7.414;2024-03-02T14:34:03;16.50;17.70
2220;DHT22;1116;51.502;7.414;2024-03-02T14:36:33;16.60;17.70
2220;DHT22;1116;51.502;7.414;2024-03-02T14:39:03;16.70;17.30
2220;DHT22;1116;51.502;7.414;2024-03-02T14:41:37;16.60;18.40
2220;DHT22;1116;51.502;7.414;2024-03-02T14:44:10;16.70;18.00
2220;DHT22;1116;51.502;7.414;2024-03-02T14:46:40;16.80;17.90
2220;DHT22;1116;51.502;7.414;2024-03-02T14:49:11;16.50;17.90
2220;DHT22;1116;51.502;7.414;2024-03-02T14:51:41;16.50;19.30
2220;DHT22;1116;51.502;7.414;2024-03-02T14:54:11;16.60;18.80
2220;DHT22;1116;51.502;7.414;2024-03-02T14:56:41;16.50;19.00
2220;DHT22;1116;51.502;7.414;2024-03-02T14:59:14;16.60;18.40
2220;DHT22;1116;51.502;7.414;2024-03-02T15:01:44;16.60;18.50
2220;DHT22;1116;51.502;7.414;2024-03-02T15:04:15;16.20;18.60
2220;DHT22;1116;51.502;7.414;2024-03-02T15:06:48;16.40;19.10
2220;DHT22;1116;51.502;7.414;2024-03-02T15:09:18;16.40;19.10
2220;DHT22;1116;51.502;7.414;2024-03-02T15:11:48;16.20;19.10
2220;DHT22;1116;51.502;7.414;2024-03-02T15:14:21;16.40;19.50
2220;DHT22;1116;51.502;7.414;2024-03-02T15:16:51;16.40;19.30
2220;DHT22;1116;51.502;7.414;2024-03-02T15:19:23;16.40;18.80
2220;DHT22;1116;51.502;7.414;2024-03-02T15:21:53;16.50;18.60
2220;DHT22;1116;51.502;7.414;2024-03-02T15:24:23;16.50;18.50
2220;DHT22;1116;51.502;7.414;2024-03-02T15:26:53;16.60;18.40
2220;DHT22;1116;51.502;7.414;2024-03-02T15:29:27;16.70;18.30
2220;DHT22;1116;51.502;7.414;2024-03-02T15:31:58;16.80;19.60
2220;DHT22;1116;51.502;7.414;2024-03-02T15:34:28;16.70;18.40
2220;DHT22;1116;51.502;7.414;2024-03-02T15:36:58;16.50;18.20
2220;DHT22;1116;51.502;7.414;2024-03-02T15:39:31;16.60;19.30
2220;DHT22;1116;51.502;7.414;2024-03-02T15:42:01;16.60;19.10
2220;DHT22;1116;51.502;7.414;2024-03-02T15:44:34;16.60;18.70
2220;DHT22;1116;51.502;7.414;2024-03-02T15:47:04;16.50;19.40
2220;DHT22;1116;51.502;7.414;2024-03-02T15:49:35;16.40;19.10
2220;DHT22;1116;51.502;7.414;2024-03-02T15:52:05;16.30;19.30
2220;DHT22;1116;51.502;7.414;2024-03-02T15:54:35;16.50;19.90
2220;DHT22;1116;51.502;7.414;2024-03-02T15:57:05;16.30;19.30
2220;DHT22;1116;51.502;7.414;2024-03-02T15:59:40;16.20;19.60
2220;DHT22;1116;51.502;7.414;2024-03-02T16:02:11;16.30;19.70
2220;DHT22;1116;51.502;7.414;2024-03-02T16:04:41;16.30;19.60
2220;DHT22;1116;51.502;7.414;2024-03-02T16:07:11;16.00;19.20
2220;DHT22;1116;51.502;7.414;2024-03-02T16:09:41;16.00;19.40
2220;DHT22;1116;51.502;7.414;2024-03-02T16:12:11;15.90;18.90
2220;DHT22;1116;51.502;7.414;2024-03-02T16:14:45;15.90;19.50
2220;DHT22;1116;51.502;7.414;2024-03-02T16:17:15;15.90;19.10
2220;DHT22;1116;51.502;7.414;2024-03-02T16:19:45;15.90;18.60
2220;DHT22;1116;51.502;7.414;2024-03-02T16:22:15;15.90;19.50
2220;DHT22;1116;51.502;7.414;2024-03-02T16:24:47;15.90;19.70
2220;DHT22;1116;51.502;7.414;2024-03-02T16:27:17;16.00;19.20
2220;DHT22;1116;51.502;7.414;2024-03-02T16:29:50;15.80;19.10
2220;DHT22;1116;51.502;7.414;2024-03-02T16:32:21;15.80;19.70
2220;DHT22;1116;51.502;7.414;2024-03-02T16:34:52;15.80;19.20